createdAt,value
2022-10-19T00:01:23.293Z,61.90
2022-10-19T00:03:51.210Z,61.80
2022-10-19T00:06:19.652Z,61.90
2022-10-19T00:08:46.665Z,61.90
2022-10-19T00:11:13.649Z,62.10
2022-10-19T00:13:40.520Z,62.30
2022-10-19T00:16:11.293Z,62.50
2022-10-19T00:18:38.575Z,62.50
2022-10-19T00:21:06.151Z,62.40
2022-10-19T00:23:33.216Z,62.70
2022-10-19T00:26:00.118Z,63.20
2022-10-19T00:28:27.278Z,63.40
2022-10-19T00:30:55.554Z,63.20
2022-10-19T00:33:22.922Z,63.40
2022-10-19T00:35:53.155Z,63.30
2022-10-19T00:38:22.061Z,63.40
2022-10-19T00:40:49.199Z,63.60
2022-10-19T00:43:16.843Z,63.70
2022-10-19T00:45:43.791Z,63.60
2022-10-19T00:48:11.408Z,63.80
2022-10-19T00:50:38.519Z,63.90
2022-10-19T00:53:05.460Z,63.90
2022-10-19T00:55:32.410Z,63.90
2022-10-19T00:58:00.325Z,63.50
2022-10-19T01:00:27.211Z,63.70
2022-10-19T01:02:54.211Z,63.70
2022-10-19T01:05:21.104Z,64.00
2022-10-19T01:07:47.971Z,64.20
2022-10-19T01:10:14.804Z,64.30
2022-10-19T01:12:44.593Z,64.80
2022-10-19T01:15:23.663Z,64.70
2022-10-19T01:18:10.954Z,64.90
2022-10-19T01:20:43.906Z,64.70
2022-10-19T01:23:29.500Z,64.50
2022-10-19T01:26:02.351Z,64.50
2022-10-19T01:28:47.960Z,64.70
2022-10-19T01:31:14.856Z,64.70
2022-10-19T01:33:50.926Z,64.90
2022-10-19T01:36:18.871Z,64.70
2022-10-19T01:38:45.723Z,64.70
2022-10-19T01:41:15.365Z,64.50
2022-10-19T01:43:59.854Z,64.60
2022-10-19T01:46:53.158Z,64.50
2022-10-19T01:49:32.319Z,64.70
2022-10-19T01:52:00.689Z,64.80
2022-10-19T01:54:30.885Z,65.00
2022-10-19T01:56:58.477Z,64.90
2022-10-19T01:59:25.604Z,64.90
2022-10-19T02:01:52.827Z,65.00
2022-10-19T02:04:20.091Z,65.20
2022-10-19T02:06:47.060Z,65.40
2022-10-19T02:09:18.579Z,65.10
2022-10-19T02:11:49.041Z,64.90
2022-10-19T02:14:17.963Z,65.10
2022-10-19T02:16:50.385Z,65.20
2022-10-19T02:19:17.441Z,65.40
2022-10-19T02:21:45.277Z,65.10
2022-10-19T02:24:12.275Z,64.50
2022-10-19T02:26:39.291Z,64.80
2022-10-19T02:29:06.286Z,64.80
2022-10-19T02:31:33.205Z,64.70
2022-10-19T02:34:00.249Z,64.80
2022-10-19T02:36:27.686Z,65.10
2022-10-19T02:38:57.752Z,65.30
2022-10-19T02:41:28.123Z,65.60
2022-10-19T02:43:57.643Z,65.60
2022-10-19T02:46:27.794Z,65.60
2022-10-19T02:48:54.676Z,65.80
2022-10-19T02:51:34.362Z,65.50
2022-10-19T02:54:04.261Z,65.50
2022-10-19T02:56:32.672Z,65.40
2022-10-19T02:58:59.715Z,65.30
2022-10-19T03:01:26.742Z,65.20
2022-10-19T03:03:54.517Z,65.10
2022-10-19T03:06:21.588Z,65.30
2022-10-19T03:08:50.386Z,65.50
2022-10-19T03:11:17.345Z,65.50
2022-10-19T03:13:44.239Z,65.60
2022-10-19T03:16:11.705Z,65.40
2022-10-19T03:18:38.663Z,65.40
2022-10-19T03:21:07.419Z,65.60
2022-10-19T03:23:34.409Z,65.70
2022-10-19T03:26:01.435Z,65.80
2022-10-19T03:28:28.747Z,65.70
2022-10-19T03:30:55.943Z,65.60
2022-10-19T03:33:23.269Z,65.60
2022-10-19T03:35:50.184Z,65.80
2022-10-19T03:38:17.196Z,66.10
2022-10-19T03:40:44.314Z,66.10
2022-10-19T03:43:14.641Z,66.30
2022-10-19T03:45:43.837Z,66.30
2022-10-19T03:48:10.806Z,66.00
2022-10-19T03:50:37.676Z,66.20
2022-10-19T03:53:04.678Z,65.80
2022-10-19T03:55:31.537Z,65.60
2022-10-19T03:57:58.568Z,65.40
2022-10-19T04:00:25.505Z,65.40
2022-10-19T04:02:52.371Z,65.60
2022-10-19T04:05:19.290Z,65.40
2022-10-19T04:07:46.230Z,65.00
2022-10-19T04:10:13.181Z,64.80
2022-10-19T04:12:40.092Z,64.70
2022-10-19T04:15:07.531Z,65.00
2022-10-19T04:17:34.606Z,64.90
2022-10-19T04:20:01.714Z,65.20
2022-10-19T04:22:28.761Z,65.60
2022-10-19T04:24:55.659Z,65.80
2022-10-19T04:27:22.532Z,66.10
2022-10-19T04:29:51.654Z,66.10
2022-10-19T04:32:18.568Z,65.90
2022-10-19T04:34:45.462Z,66.10
2022-10-19T04:37:12.293Z,66.20
2022-10-19T04:39:41.241Z,66.40
2022-10-19T04:42:08.074Z,66.30
2022-10-19T04:44:35.294Z,66.40
2022-10-19T04:47:02.255Z,66.70
2022-10-19T04:49:29.186Z,66.80
2022-10-19T04:51:56.189Z,66.90
2022-10-19T04:54:25.193Z,67.00
2022-10-19T04:56:54.236Z,66.80
2022-10-19T04:59:22.110Z,66.80
2022-10-19T05:01:48.983Z,66.90
2022-10-19T05:04:15.903Z,66.80
2022-10-19T05:06:42.789Z,67.10
2022-10-19T05:09:09.711Z,66.90
2022-10-19T05:11:36.753Z,66.90
2022-10-19T05:14:03.638Z,66.90
2022-10-19T05:16:30.525Z,66.90
2022-10-19T05:18:59.228Z,66.90
2022-10-19T05:21:27.936Z,66.80
2022-10-19T05:23:55.331Z,66.90
2022-10-19T05:26:23.287Z,66.80
2022-10-19T05:28:50.905Z,66.90
2022-10-19T05:31:18.819Z,66.70
2022-10-19T05:33:46.645Z,66.90
2022-10-19T05:36:16.744Z,66.80
2022-10-19T05:38:43.900Z,67.10
2022-10-19T05:41:10.949Z,67.40
2022-10-19T05:43:37.973Z,67.50
2022-10-19T05:46:06.411Z,67.60
2022-10-19T05:48:34.256Z,67.50
2022-10-19T05:51:01.885Z,67.40
2022-10-19T05:53:29.627Z,67.60
2022-10-19T05:55:56.740Z,67.70
2022-10-19T05:58:23.809Z,67.60
2022-10-19T06:00:51.535Z,67.90
2022-10-19T06:03:18.545Z,68.00
2022-10-19T06:05:45.375Z,68.10
2022-10-19T06:08:12.409Z,68.00
2022-10-19T06:10:40.505Z,67.50
2022-10-19T06:13:07.499Z,67.40
2022-10-19T06:15:34.693Z,67.10
2022-10-19T06:18:01.577Z,67.60
2022-10-19T06:20:29.624Z,67.70
2022-10-19T06:22:56.718Z,67.60
2022-10-19T06:25:24.855Z,67.40
2022-10-19T06:27:52.028Z,67.40
2022-10-19T06:30:19.156Z,67.40
2022-10-19T06:32:46.208Z,66.90
2022-10-19T06:35:13.130Z,67.20
2022-10-19T06:37:40.102Z,67.10
2022-10-19T06:40:07.399Z,66.60
2022-10-19T06:42:34.435Z,66.20
2022-10-19T06:45:01.264Z,65.80
2022-10-19T06:47:33.420Z,65.80
2022-10-19T06:50:00.867Z,65.40
2022-10-19T06:52:27.802Z,65.00
2022-10-19T06:54:54.745Z,64.90
2022-10-19T06:57:21.606Z,64.50
2022-10-19T06:59:52.810Z,63.40
2022-10-19T07:02:20.890Z,61.80
2022-10-19T07:04:47.919Z,59.20
2022-10-19T07:07:14.830Z,56.20
2022-10-19T07:09:41.799Z,54.10
2022-10-19T07:12:11.042Z,52.20
2022-10-19T07:14:39.802Z,51.00
2022-10-19T07:17:07.661Z,49.20
2022-10-19T07:19:35.072Z,47.80
2022-10-19T07:22:02.128Z,45.50
2022-10-19T07:24:29.015Z,44.40
2022-10-19T07:26:56.375Z,43.10
2022-10-19T07:29:23.360Z,42.40
2022-10-19T07:31:50.293Z,41.30
2022-10-19T07:34:17.459Z,40.50
2022-10-19T07:36:45.454Z,39.60
2022-10-19T07:39:12.755Z,38.80
2022-10-19T07:41:39.700Z,38.50
2022-10-19T07:44:07.486Z,38.20
2022-10-19T07:46:40.455Z,37.90
2022-10-19T07:49:10.316Z,37.80
2022-10-19T07:51:38.168Z,37.30
2022-10-19T07:54:05.099Z,36.50
2022-10-19T07:56:32.131Z,36.00
2022-10-19T07:58:59.529Z,35.30
2022-10-19T08:01:30.759Z,34.90
2022-10-19T08:06:45.463Z,33.60
2022-10-19T08:09:40.177Z,33.40
2022-10-19T08:12:12.382Z,32.90
2022-10-19T08:14:41.676Z,32.80
2022-10-19T08:17:11.722Z,32.90
2022-10-19T08:19:43.748Z,31.90
2022-10-19T08:22:11.016Z,31.60
2022-10-19T08:24:38.086Z,31.20
2022-10-19T08:27:05.032Z,31.10
2022-10-19T08:29:32.253Z,31.20
2022-10-19T08:31:59.319Z,31.50
2022-10-19T08:34:26.407Z,31.90
2022-10-19T08:36:53.519Z,31.00
2022-10-19T08:39:20.647Z,30.50
2022-10-19T08:42:03.668Z,30.20
2022-10-19T08:44:52.918Z,30.00
2022-10-19T08:47:31.967Z,30.00
2022-10-19T08:49:58.993Z,30.00
2022-10-19T08:52:35.817Z,29.80
2022-10-19T08:55:07.352Z,29.60
2022-10-19T08:57:46.598Z,30.00
2022-10-19T09:00:28.352Z,30.70
2022-10-19T09:02:55.242Z,32.10
2022-10-19T09:05:25.225Z,33.00
2022-10-19T09:07:52.375Z,33.90
2022-10-19T09:10:22.120Z,35.00
2022-10-19T09:12:53.880Z,35.30
2022-10-19T09:15:27.623Z,36.20
2022-10-19T09:17:54.804Z,36.00
2022-10-19T09:20:22.880Z,34.40
2022-10-19T09:23:15.881Z,33.60
2022-10-19T09:25:43.005Z,33.80
2022-10-19T09:28:33.900Z,34.10
2022-10-19T09:31:05.889Z,33.50
2022-10-19T09:33:35.891Z,33.30
2022-10-19T09:36:03.183Z,32.90
2022-10-19T09:38:30.334Z,33.20
2022-10-19T09:41:42.090Z,34.20
2022-10-19T09:44:09.129Z,36.00
2022-10-19T09:46:39.152Z,37.90
2022-10-19T09:49:06.516Z,39.60
2022-10-19T09:51:51.959Z,41.20
2022-10-19T09:54:31.914Z,42.40
2022-10-19T09:56:59.004Z,43.50
2022-10-19T09:59:29.834Z,44.30
2022-10-19T10:02:14.719Z,44.20
2022-10-19T10:04:41.724Z,43.70
2022-10-19T10:07:11.428Z,43.40
2022-10-19T10:09:38.414Z,43.80
2022-10-19T10:12:08.631Z,44.40
2022-10-19T10:14:35.926Z,44.70
2022-10-19T10:17:12.349Z,44.30
2022-10-19T10:19:39.791Z,43.80
2022-10-19T10:22:06.773Z,43.70
2022-10-19T10:24:33.768Z,44.50
2022-10-19T10:27:01.340Z,44.60
2022-10-19T10:29:32.879Z,45.30
2022-10-19T10:32:12.898Z,46.20
2022-10-19T10:34:50.546Z,46.70
2022-10-19T10:37:23.053Z,47.00
2022-10-19T10:39:53.283Z,47.10
2022-10-19T10:42:20.966Z,46.70
2022-10-19T10:44:52.171Z,46.70
2022-10-19T10:47:20.922Z,47.10
2022-10-19T10:49:57.614Z,47.10
2022-10-19T10:52:29.453Z,47.30
2022-10-19T10:55:09.485Z,47.60
2022-10-19T10:57:40.581Z,48.10
2022-10-19T11:00:28.096Z,48.40
2022-10-19T11:02:55.000Z,48.10
2022-10-19T11:05:23.673Z,48.60
2022-10-19T11:07:54.685Z,48.50
2022-10-19T11:10:24.027Z,48.50
2022-10-19T11:13:29.656Z,48.30
2022-10-19T11:16:00.801Z,47.40
2022-10-19T11:18:30.365Z,46.80
2022-10-19T11:21:00.000Z,46.60
2022-10-19T11:23:34.922Z,46.70
2022-10-19T11:26:20.257Z,47.10
2022-10-19T11:28:50.171Z,47.20
2022-10-19T11:31:17.044Z,47.20
2022-10-19T11:34:00.526Z,47.10
2022-10-19T11:36:39.654Z,47.30
2022-10-19T11:39:26.532Z,47.10
2022-10-19T11:42:19.483Z,47.40
2022-10-19T11:44:51.923Z,47.30
2022-10-19T11:47:24.455Z,47.80
2022-10-19T11:50:15.559Z,47.90
2022-10-19T11:53:14.135Z,48.20
2022-10-19T11:55:41.078Z,48.20
2022-10-19T11:58:08.017Z,48.70
2022-10-19T12:00:39.599Z,49.40
2022-10-19T12:03:06.894Z,49.70
2022-10-19T12:05:35.919Z,50.10
2022-10-19T12:08:05.568Z,50.30
2022-10-19T12:10:50.623Z,50.70
2022-10-19T12:13:21.260Z,51.00
2022-10-19T12:15:53.839Z,50.60
2022-10-19T12:18:23.583Z,49.70
2022-10-19T12:20:51.424Z,48.80
2022-10-19T12:23:33.923Z,48.30
2022-10-19T12:26:04.031Z,47.90
2022-10-19T12:28:31.531Z,47.70
2022-10-19T12:30:59.060Z,47.80
2022-10-19T12:33:38.368Z,48.00
2022-10-19T12:36:08.702Z,48.20
2022-10-19T12:38:45.978Z,48.00
2022-10-19T12:41:14.913Z,46.40
2022-10-19T12:43:44.076Z,43.60
2022-10-19T12:46:20.067Z,41.70
2022-10-19T12:48:49.121Z,39.00
2022-10-19T12:51:16.267Z,36.60
2022-10-19T12:53:46.589Z,36.10
2022-10-19T12:56:15.481Z,36.40
2022-10-19T12:58:47.643Z,35.80
2022-10-19T13:01:23.483Z,36.50
2022-10-19T13:03:51.990Z,36.50
2022-10-19T13:06:20.514Z,36.40
2022-10-19T13:08:47.803Z,38.20
2022-10-19T13:11:21.056Z,38.40
2022-10-19T13:14:07.633Z,38.60
2022-10-19T13:16:41.670Z,36.90
2022-10-19T13:19:15.875Z,35.50
2022-10-19T13:21:52.844Z,34.40
2022-10-19T13:24:46.717Z,33.90
2022-10-19T13:27:26.967Z,32.90
2022-10-19T13:29:56.956Z,33.20
2022-10-19T13:32:35.225Z,34.60
2022-10-19T13:35:21.840Z,34.60
2022-10-19T13:38:07.466Z,34.20
2022-10-19T13:40:34.489Z,33.50
2022-10-19T13:43:01.475Z,33.10
2022-10-19T13:45:28.523Z,33.50
2022-10-19T13:47:57.505Z,32.90
2022-10-19T13:50:24.482Z,32.90
2022-10-19T13:53:06.582Z,32.60
2022-10-19T13:55:39.551Z,32.70
2022-10-19T13:58:24.974Z,32.70
2022-10-19T14:00:55.151Z,33.00
2022-10-19T14:06:41.290Z,35.10
2022-10-19T14:09:29.925Z,36.30
2022-10-19T14:12:17.100Z,36.30
2022-10-19T14:14:44.268Z,37.00
2022-10-19T14:17:26.420Z,38.20
2022-10-19T14:20:09.579Z,38.40
2022-10-19T14:22:37.101Z,38.00
2022-10-19T14:25:15.513Z,38.00
2022-10-19T14:27:42.408Z,38.60
2022-10-19T14:30:30.374Z,39.40
2022-10-19T14:33:03.803Z,39.40
2022-10-19T14:35:35.183Z,38.80
2022-10-19T14:38:09.399Z,37.90
2022-10-19T14:40:41.579Z,37.80
2022-10-19T14:43:22.072Z,37.40
2022-10-19T14:46:08.517Z,38.00
2022-10-19T14:48:35.781Z,38.40
2022-10-19T14:51:02.714Z,39.80
2022-10-19T14:53:52.669Z,40.80
2022-10-19T14:56:33.842Z,42.00
2022-10-19T14:59:08.337Z,43.30
2022-10-19T15:01:35.570Z,43.80
2022-10-19T15:04:04.501Z,45.10
2022-10-19T15:06:32.057Z,46.00
2022-10-19T15:09:01.369Z,46.60
2022-10-19T15:11:31.175Z,46.80
2022-10-19T15:14:00.822Z,47.60
2022-10-19T15:16:31.911Z,47.80
2022-10-19T15:19:02.582Z,48.30
2022-10-19T15:21:33.196Z,48.60
2022-10-19T15:24:17.277Z,48.60
2022-10-19T15:26:54.653Z,48.70
2022-10-19T15:29:30.834Z,49.00
2022-10-19T15:32:12.384Z,49.30
2022-10-19T15:34:39.352Z,49.40
2022-10-19T15:37:08.370Z,49.60
2022-10-19T15:39:43.347Z,49.20
2022-10-19T15:42:31.592Z,49.50
2022-10-19T15:44:58.553Z,49.80
2022-10-19T15:47:28.171Z,49.90
2022-10-19T15:49:56.379Z,50.10
2022-10-19T15:52:24.198Z,50.90
2022-10-19T15:54:51.585Z,51.30
2022-10-19T15:57:34.845Z,51.40
2022-10-19T16:00:15.173Z,51.50
2022-10-19T16:02:42.284Z,52.10
2022-10-19T16:05:09.469Z,52.40
2022-10-19T16:07:37.095Z,52.30
2022-10-19T16:10:04.456Z,52.50
2022-10-19T16:12:31.434Z,52.80
2022-10-19T16:14:58.535Z,53.30
2022-10-19T16:17:28.642Z,53.60
2022-10-19T16:19:55.569Z,53.90
2022-10-19T16:22:22.586Z,54.40
2022-10-19T16:24:49.723Z,54.70
2022-10-19T16:27:19.252Z,55.00
2022-10-19T16:29:48.926Z,55.20
2022-10-19T16:32:15.986Z,55.30
2022-10-19T16:34:43.008Z,55.50
2022-10-19T16:37:09.988Z,55.80
2022-10-19T16:39:37.464Z,56.50
2022-10-19T16:42:04.585Z,56.00
2022-10-19T16:44:31.503Z,56.30
2022-10-19T16:47:00.031Z,56.40
2022-10-19T16:49:27.051Z,56.60
2022-10-19T16:51:57.216Z,56.70
2022-10-19T16:54:25.070Z,56.80
2022-10-19T16:56:52.174Z,56.90
2022-10-19T16:59:19.132Z,57.10
2022-10-19T17:01:46.525Z,57.20
2022-10-19T17:04:13.759Z,57.50
2022-10-19T17:06:41.662Z,57.80
2022-10-19T17:11:57.103Z,58.60
2022-10-19T17:14:23.994Z,58.90
2022-10-19T17:16:50.905Z,59.30
2022-10-19T17:19:17.963Z,59.70
2022-10-19T17:21:44.915Z,59.40
2022-10-19T17:24:21.014Z,59.20
2022-10-19T17:26:50.260Z,59.40
2022-10-19T17:29:17.412Z,59.50
2022-10-19T17:31:44.557Z,59.30
2022-10-19T17:37:11.602Z,59.50
2022-10-19T17:39:45.971Z,59.30
2022-10-19T17:42:15.715Z,59.30
2022-10-19T17:44:42.872Z,59.60
2022-10-19T17:47:09.848Z,59.80
2022-10-19T17:49:37.237Z,60.10
2022-10-19T17:52:04.153Z,60.20
2022-10-19T17:54:43.353Z,60.40
2022-10-19T17:57:19.431Z,60.50
2022-10-19T17:59:52.572Z,60.60
2022-10-19T18:02:20.360Z,60.50
2022-10-19T18:04:47.572Z,60.60
2022-10-19T18:07:16.550Z,60.60
2022-10-19T18:09:45.210Z,60.70
2022-10-19T18:12:13.571Z,61.00
2022-10-19T18:14:40.627Z,61.20
2022-10-19T18:17:09.653Z,61.40
2022-10-19T18:19:36.678Z,61.90
2022-10-19T18:22:03.764Z,62.30
2022-10-19T18:24:31.367Z,62.50
2022-10-19T18:26:58.509Z,62.70
2022-10-19T18:29:25.620Z,62.50
2022-10-19T18:31:52.985Z,62.40
2022-10-19T18:34:21.574Z,62.40
2022-10-19T18:36:49.281Z,62.50
2022-10-19T18:39:17.176Z,62.30
2022-10-19T18:41:44.151Z,62.40
2022-10-19T18:44:11.947Z,62.50
2022-10-19T18:46:39.067Z,62.60
2022-10-19T18:49:06.960Z,62.50
2022-10-19T18:51:34.086Z,62.70
2022-10-19T18:54:01.153Z,62.90
2022-10-19T18:56:29.634Z,63.00
2022-10-19T18:58:56.916Z,63.10
2022-10-19T19:01:24.750Z,63.10
2022-10-19T19:03:52.013Z,63.20
2022-10-19T19:06:19.794Z,63.30
2022-10-19T19:08:46.677Z,63.30
2022-10-19T19:11:13.614Z,63.30
2022-10-19T19:13:40.710Z,63.50
2022-10-19T19:16:10.316Z,63.60
2022-10-19T19:18:40.601Z,63.60
2022-10-19T19:21:13.211Z,63.50
2022-10-19T19:23:40.207Z,63.40
2022-10-19T19:26:07.744Z,63.90
2022-10-19T19:28:40.669Z,63.30
2022-10-19T19:31:09.417Z,63.40
2022-10-19T19:33:37.123Z,63.40
2022-10-19T19:36:06.565Z,63.40
2022-10-19T19:38:33.584Z,64.00
2022-10-19T19:41:03.993Z,64.40
2022-10-19T19:43:33.168Z,64.30
2022-10-19T19:46:03.305Z,64.60
2022-10-19T19:48:33.519Z,64.80
2022-10-19T19:51:00.888Z,64.90
2022-10-19T19:53:27.861Z,65.00
2022-10-19T19:55:55.251Z,65.00
2022-10-19T19:58:22.367Z,65.10
2022-10-19T20:00:49.339Z,65.50
2022-10-19T20:03:16.572Z,65.70
2022-10-19T20:05:43.426Z,65.60
2022-10-19T20:08:10.746Z,65.50
2022-10-19T20:10:38.181Z,65.60
2022-10-19T20:15:37.550Z,65.70
2022-10-19T20:18:06.812Z,65.40
2022-10-19T20:20:33.801Z,65.10
2022-10-19T20:23:00.671Z,65.00
2022-10-19T20:25:28.205Z,64.70
2022-10-19T20:27:55.258Z,64.70
2022-10-19T20:30:22.302Z,64.60
2022-10-19T20:32:55.595Z,64.90
2022-10-19T20:35:25.436Z,65.00
2022-10-19T20:37:52.507Z,65.10
2022-10-19T20:40:19.409Z,64.70
2022-10-19T20:42:46.593Z,64.50
2022-10-19T20:45:13.575Z,64.80
2022-10-19T20:47:40.860Z,64.80
2022-10-19T20:50:08.230Z,64.90
2022-10-19T20:52:35.507Z,65.60
2022-10-19T20:55:02.646Z,65.10
2022-10-19T20:57:29.630Z,65.10
2022-10-19T20:59:56.639Z,65.20
2022-10-19T21:02:24.155Z,65.10
2022-10-19T21:04:51.401Z,65.20
2022-10-19T21:07:20.348Z,65.30
2022-10-19T21:09:47.266Z,65.20
2022-10-19T21:12:14.467Z,65.20
2022-10-19T21:14:41.384Z,65.40
2022-10-19T21:17:09.347Z,65.30
2022-10-19T21:19:36.408Z,65.50
2022-10-19T21:22:03.643Z,65.50
2022-10-19T21:24:32.879Z,65.50
2022-10-19T21:27:01.142Z,65.10
2022-10-19T21:29:28.394Z,65.20
2022-10-19T21:31:55.371Z,65.20
2022-10-19T21:34:29.954Z,64.90
2022-10-19T21:36:57.517Z,65.90
2022-10-19T21:39:24.777Z,66.50
2022-10-19T21:41:52.011Z,66.50
2022-10-19T21:44:19.100Z,66.50
2022-10-19T21:46:49.295Z,66.30
2022-10-19T21:49:16.298Z,66.50
2022-10-19T21:51:44.705Z,67.10
2022-10-19T21:54:13.075Z,67.40
2022-10-19T21:56:40.237Z,67.20
2022-10-19T21:59:10.576Z,66.80
2022-10-19T22:01:40.378Z,66.10
2022-10-19T22:04:12.791Z,65.60
2022-10-19T22:06:39.756Z,65.40
2022-10-19T22:09:07.082Z,66.00
2022-10-19T22:11:34.041Z,65.30
2022-10-19T22:14:01.370Z,65.60
2022-10-19T22:16:28.569Z,66.00
2022-10-19T22:18:55.508Z,66.10
2022-10-19T22:21:23.576Z,66.10
2022-10-19T22:23:51.842Z,66.30
2022-10-19T22:26:19.640Z,66.10
2022-10-19T22:28:46.521Z,65.80
2022-10-19T22:31:13.354Z,65.50
2022-10-19T22:33:40.268Z,65.40
2022-10-19T22:36:07.729Z,65.30
2022-10-19T22:38:34.777Z,65.30
2022-10-19T22:41:21.834Z,65.30
2022-10-19T22:43:48.933Z,65.40
2022-10-19T22:46:15.822Z,65.40
2022-10-19T22:48:42.782Z,65.30
2022-10-19T22:51:09.707Z,65.30
2022-10-19T22:53:36.670Z,65.40
2022-10-19T22:56:03.837Z,65.30
2022-10-19T22:58:30.904Z,65.30
2022-10-19T23:01:01.510Z,65.40
2022-10-19T23:03:28.567Z,65.60
2022-10-19T23:05:58.155Z,66.00
2022-10-19T23:08:28.241Z,66.10
2022-10-19T23:10:57.788Z,66.00
2022-10-19T23:13:25.202Z,66.00
2022-10-19T23:15:52.524Z,65.70
2022-10-19T23:18:19.506Z,65.70
2022-10-19T23:21:02.258Z,65.80
2022-10-19T23:23:29.544Z,65.90
2022-10-19T23:25:59.994Z,66.20
2022-10-19T23:28:30.120Z,65.90
2022-10-19T23:30:58.805Z,65.70
2022-10-19T23:33:34.953Z,66.00
2022-10-19T23:36:15.493Z,66.50
2022-10-19T23:38:46.718Z,66.80
2022-10-19T23:41:13.726Z,66.50
2022-10-19T23:43:40.925Z,66.70
2022-10-19T23:46:10.980Z,67.00
2022-10-19T23:48:38.161Z,67.10
2022-10-19T23:51:08.982Z,67.00
2022-10-19T23:53:39.991Z,66.60
2022-10-19T23:56:23.537Z,66.60
2022-10-19T23:58:51.006Z,66.40
